Time;durP1;ratioP1;P1;durP2;ratioP2;P2;SDS_P1;SDS_P2;PMS_P1;PMS_P2;Temp;Humidity;BMP_temperature;BMP_pressure;BME280_temperature;BME280_humidity;BME280_pressure;Samples;Min_cycle;Max_cycle;Signal;HPM_P1;HPM_P2
2022/03/30 00:02:14;;;;;;;48.80;24.15;;;;;;;5.10;60.08;98990.31;5087943;28;20063;-76
2022/03/30 00:04:41;;;;;;;50.70;23.80;;;;;;;5.08;60.11;98987.81;5088646;28;20459;-76
2022/03/30 00:07:08;;;;;;;57.72;26.98;;;;;;;5.09;60.06;98986.00;5089805;28;20036;-74
2022/03/30 00:09:36;;;;;;;56.78;28.17;;;;;;;5.07;60.12;98983.50;5088795;28;20487;-76
2022/03/30 00:12:03;;;;;;;59.45;27.60;;;;;;;5.05;60.09;98982.78;5089161;28;20050;-74
2022/03/30 00:14:31;;;;;;;61.20;26.63;;;;;;;5.05;60.24;98984.56;5088623;28;20040;-74
2022/03/30 00:16:58;;;;;;;49.85;24.50;;;;;;;5.04;60.08;98981.13;5088768;28;20139;-75
2022/03/30 00:19:25;;;;;;;54.35;25.40;;;;;;;5.01;60.09;98983.94;5088237;28;20040;-75
2022/03/30 00:21:52;;;;;;;40.80;22.98;;;;;;;5.01;60.04;98983.94;5089257;28;20040;-76
2022/03/30 00:24:19;;;;;;;54.80;24.55;;;;;;;4.99;59.95;98983.22;5088862;28;20048;-77
2022/03/30 00:26:46;;;;;;;50.35;23.73;;;;;;;4.98;60.04;98978.91;5089504;28;20048;-75
2022/03/30 00:29:13;;;;;;;51.60;25.42;;;;;;;4.97;60.03;98972.03;5089570;28;20062;-77
2022/03/30 00:31:41;;;;;;;54.97;25.33;;;;;;;4.97;60.02;98974.63;5087301;28;20455;-76
2022/03/30 00:34:09;;;;;;;51.35;24.13;;;;;;;4.95;60.06;98974.75;5088978;28;20068;-77
2022/03/30 00:36:35;;;;;;;56.53;23.60;;;;;;;4.98;60.01;98973.69;5089412;28;20700;-74
2022/03/30 00:39:03;;;;;;;54.58;25.60;;;;;;;5.00;59.80;98976.19;5089542;28;20183;-78
2022/03/30 00:41:30;;;;;;;58.97;26.08;;;;;;;5.07;59.71;98975.66;5089809;28;20127;-75
2022/03/30 00:43:57;;;;;;;57.08;28.35;;;;;;;5.15;59.54;98970.72;5089394;28;20135;-76
2022/03/30 00:46:24;;;;;;;56.60;28.45;;;;;;;5.24;59.41;98969.25;5088406;28;20051;-78
2022/03/30 00:48:52;;;;;;;55.78;28.45;;;;;;;5.27;59.33;98968.19;5088374;28;20051;-77
2022/03/30 00:51:20;;;;;;;52.63;24.88;;;;;;;5.32;59.24;98966.06;5089087;28;20123;-78
2022/03/30 00:53:47;;;;;;;49.63;27.65;;;;;;;5.34;59.15;98964.16;5089297;28;20051;-77
2022/03/30 00:56:14;;;;;;;55.08;27.92;;;;;;;5.37;59.19;98958.72;5089613;28;20123;-75
2022/03/30 00:58:42;;;;;;;48.70;22.33;;;;;;;5.38;59.28;98960.38;5089069;28;20055;-77
2022/03/30 01:01:09;;;;;;;48.08;25.10;;;;;;;5.41;59.16;98956.72;5088784;28;20127;-75
2022/03/30 01:03:36;;;;;;;54.33;26.15;;;;;;;5.47;59.09;98956.28;5089510;28;20048;-78
2022/03/30 01:06:04;;;;;;;55.13;25.02;;;;;;;5.53;59.19;98958.47;5088865;28;20051;-76
2022/03/30 01:08:32;;;;;;;59.30;25.67;;;;;;;5.61;58.95;98953.47;5091639;28;20048;-75
2022/03/30 01:11:00;;;;;;;53.03;26.20;;;;;;;5.66;58.79;98948.75;5089726;28;20050;-75
2022/03/30 01:13:27;;;;;;;54.03;27.60;;;;;;;5.69;58.76;98947.69;5088202;28;20123;-76
2022/03/30 01:15:54;;;;;;;48.00;25.40;;;;;;;5.70;58.74;98959.84;5087642;28;20074;-76
2022/03/30 01:18:21;;;;;;;50.75;26.73;;;;;;;5.67;58.34;98947.81;5089335;28;20046;-78
2022/03/30 01:20:50;;;;;;;49.65;24.90;;;;;;;5.66;58.88;98948.75;5088072;28;20052;-76
2022/03/30 01:23:18;;;;;;;51.80;25.55;;;;;;;5.63;58.91;98953.38;5087559;28;20113;-76
2022/03/30 01:25:45;;;;;;;46.15;26.08;;;;;;;5.59;58.90;98949.31;5087718;28;20044;-76
2022/03/30 01:28:12;;;;;;;55.08;25.52;;;;;;;5.54;58.99;98941.78;5086840;28;20054;-75
2022/03/30 01:33:24;;;;;;;43.05;24.02;;;;;;;5.48;58.98;98929.16;5085939;28;20132;-75
2022/03/30 01:35:52;;;;;;;52.72;27.23;;;;;;;5.47;59.14;98932.69;5086225;28;20647;-75
2022/03/30 01:38:21;;;;;;;62.00;26.58;;;;;;;5.44;59.22;98933.78;5086958;28;20059;-77
2022/03/30 01:40:48;;;;;;;49.97;25.00;;;;;;;5.43;59.06;98926.03;5087909;28;20083;-77
2022/03/30 01:43:16;;;;;;;57.90;25.05;;;;;;;5.41;59.16;98926.13;5088030;28;20052;-74
2022/03/30 01:45:43;;;;;;;52.72;26.52;;;;;;;5.44;59.20;98928.53;5087149;28;20044;-74
2022/03/30 01:48:10;;;;;;;50.65;23.60;;;;;;;5.46;58.98;98931.03;5086784;28;20054;-75
2022/03/30 01:50:37;;;;;;;44.97;22.75;;;;;;;5.47;59.03;98925.66;5087400;28;20414;-75
2022/03/30 01:53:05;;;;;;;47.03;25.98;;;;;;;5.47;59.09;98920.44;5087757;28;20156;-76
2022/03/30 01:55:32;;;;;;;52.63;27.45;;;;;;;5.53;58.92;98920.00;5088529;28;20062;-76
2022/03/30 01:57:59;;;;;;;53.90;25.85;;;;;;;5.64;58.83;98921.84;5088114;28;20055;-77
2022/03/30 02:00:26;;;;;;;48.67;24.90;;;;;;;5.75;58.44;98921.03;5086964;28;20040;-77
2022/03/30 02:02:53;;;;;;;50.88;24.83;;;;;;;5.84;58.46;98917.75;5086036;28;20135;-77
2022/03/30 02:05:20;;;;;;;53.47;25.75;;;;;;;5.93;58.22;98908.38;5088254;28;20048;-76
2022/03/30 02:07:48;;;;;;;42.88;21.95;;;;;;;6.00;58.10;98906.16;5088112;28;20110;-75
2022/03/30 02:10:18;;;;;;;48.13;23.75;;;;;;;6.10;57.90;98912.34;5087892;28;20052;-75
2022/03/30 02:12:45;;;;;;;46.78;23.73;;;;;;;6.18;57.85;98907.38;5087653;28;20079;-77
2022/03/30 02:15:13;;;;;;;53.40;24.73;;;;;;;6.23;57.72;98909.63;5087633;28;20120;-78
2022/03/30 02:17:40;;;;;;;43.38;23.05;;;;;;;6.25;57.88;98911.22;5087355;28;20055;-76
2022/03/30 02:20:08;;;;;;;49.70;27.05;;;;;;;6.31;57.73;98902.88;5087444;28;20075;-76
2022/03/30 02:22:37;;;;;;;50.92;26.60;;;;;;;6.37;57.69;98895.47;5087245;28;20048;-75
2022/03/30 02:25:04;;;;;;;43.30;25.20;;;;;;;6.41;57.58;98899.53;5087209;28;20066;-76
2022/03/30 02:27:33;;;;;;;45.42;28.23;;;;;;;6.43;57.68;98905.53;5087589;28;20093;-79
2022/03/30 02:30:02;;;;;;;48.03;24.00;;;;;;;6.44;57.65;98896.69;5087055;28;20384;-76
2022/03/30 02:32:29;;;;;;;51.30;23.88;;;;;;;6.50;57.72;98904.09;5085435;28;20060;-75
2022/03/30 02:34:56;;;;;;;46.33;25.05;;;;;;;6.53;57.59;98903.00;5087243;28;20461;-75
2022/03/30 02:37:23;;;;;;;56.45;29.90;;;;;;;6.59;57.62;98905.13;5087441;28;20040;-76
2022/03/30 02:39:51;;;;;;;51.47;27.80;;;;;;;6.61;57.59;98896.22;5086871;28;20090;-76
2022/03/30 02:42:18;;;;;;;54.33;27.20;;;;;;;6.62;57.62;98892.63;5086894;28;20046;-75
2022/03/30 02:44:46;;;;;;;48.72;25.95;;;;;;;6.69;57.45;98906.94;5085424;28;20052;-74
2022/03/30 02:47:13;;;;;;;46.70;25.15;;;;;;;6.71;57.45;98893.69;5085765;28;20050;-74
2022/03/30 02:49:40;;;;;;;48.60;24.45;;;;;;;6.73;57.40;98898.81;5086956;28;20036;-76
2022/03/30 02:52:11;;;;;;;50.42;26.92;;;;;;;6.70;57.58;98895.50;5087253;28;20040;-77
2022/03/30 02:54:37;;;;;;;53.40;25.35;;;;;;;6.67;57.61;98895.72;5086793;28;20574;-76
2022/03/30 02:57:05;;;;;;;50.97;25.75;;;;;;;6.68;57.58;98902.66;5092628;28;20051;-76
2022/03/30 02:59:32;;;;;;;53.72;25.48;;;;;;;6.68;57.71;98902.66;5096134;28;20173;-75
2022/03/30 03:02:01;;;;;;;49.42;25.60;;;;;;;6.67;57.56;98900.16;5088691;28;20059;-75
2022/03/30 03:04:28;;;;;;;49.17;27.20;;;;;;;6.65;57.80;98895.00;5090241;28;20044;-74
2022/03/30 03:06:55;;;;;;;54.72;27.73;;;;;;;6.61;57.64;98898.84;5090054;28;20249;-75
2022/03/30 03:09:22;;;;;;;53.17;28.73;;;;;;;6.58;57.81;98898.25;5089549;28;20583;-77
2022/03/30 03:11:58;;;;;;;60.42;28.35;;;;;;;6.54;57.96;98896.81;5092294;28;20054;-73
2022/03/30 03:14:25;;;;;;;58.47;29.05;;;;;;;6.51;57.87;98895.25;5041496;28;20052;-75
2022/03/30 03:16:52;;;;;;;50.65;26.67;;;;;;;6.45;58.05;98896.56;5089784;28;20126;-75
2022/03/30 03:19:23;;;;;;;45.85;27.40;;;;;;;6.42;58.16;98886.31;5089643;28;20090;-75
2022/03/30 03:21:50;;;;;;;60.67;28.58;;;;;;;6.37;58.18;98885.00;5090587;28;20637;-75
2022/03/30 03:24:17;;;;;;;45.58;25.13;;;;;;;6.32;58.11;98893.22;5090449;28;20082;-75
2022/03/30 03:26:44;;;;;;;52.90;30.40;;;;;;;6.24;58.33;98901.66;5091326;28;20608;-75
2022/03/30 03:29:11;;;;;;;48.28;27.70;;;;;;;6.15;58.60;98891.06;5096868;28;20070;-75
2022/03/30 03:31:38;;;;;;;58.55;29.45;;;;;;;6.07;58.55;98899.50;5096022;28;20105;-73
2022/03/30 03:34:05;;;;;;;54.28;29.23;;;;;;;5.97;58.68;98893.28;5043507;28;20044;-76
2022/03/30 03:36:34;;;;;;;46.42;25.88;;;;;;;5.91;58.79;98900.63;5093684;28;20044;-75
2022/03/30 03:39:01;;;;;;;57.00;28.45;;;;;;;5.86;58.82;98901.91;5101070;28;20105;-76
2022/03/30 03:41:28;;;;;;;53.05;27.00;;;;;;;5.80;58.87;98900.59;5097180;28;20051;-76
2022/03/30 03:43:56;;;;;;;53.03;27.55;;;;;;;5.73;58.91;98897.56;5097002;28;20516;-75
2022/03/30 03:46:23;;;;;;;55.92;29.15;;;;;;;5.67;58.91;98897.19;5100517;28;20083;-74
2022/03/30 03:48:53;;;;;;;62.55;31.77;;;;;;;5.61;59.01;98900.28;5092525;28;20055;-77
2022/03/30 03:51:21;;;;;;;66.20;30.95;;;;;;;5.53;59.15;98904.28;5057479;28;20506;-74
2022/03/30 03:53:49;;;;;;;67.35;30.33;;;;;;;5.47;59.12;98904.72;5091573;28;20051;-75
2022/03/30 03:56:16;;;;;;;60.20;28.90;;;;;;;5.41;59.35;98897.31;5090439;28;20131;-75
2022/03/30 03:58:43;;;;;;;61.97;30.60;;;;;;;5.35;59.30;98906.47;5093478;28;20051;-76
2022/03/30 04:01:11;;;;;;;57.08;30.80;;;;;;;5.30;59.42;98899.91;5091964;28;20050;-75
2022/03/30 04:03:42;;;;;;;68.78;31.10;;;;;;;5.23;59.47;98898.66;5093995;28;20122;-79
2022/03/30 04:06:09;;;;;;;72.75;31.17;;;;;;;5.17;59.58;98899.94;5096311;28;20052;-77
2022/03/30 04:08:36;;;;;;;64.20;31.13;;;;;;;5.11;59.54;98892.53;5100377;28;20112;-76
2022/03/30 04:11:04;;;;;;;56.30;27.55;;;;;;;5.06;59.65;98895.47;5091974;28;20105;-74
2022/03/30 04:13:32;;;;;;;58.17;28.38;;;;;;;5.03;59.69;98895.69;5093330;28;20080;-75
2022/03/30 04:15:59;;;;;;;65.82;30.63;;;;;;;4.98;59.70;98900.41;5087388;28;20047;-76
2022/03/30 04:18:26;;;;;;;62.58;28.67;;;;;;;4.95;59.85;98895.38;5092065;28;20051;-75
2022/03/30 04:20:53;;;;;;;60.15;30.02;;;;;;;4.91;59.75;98905.25;5084220;28;20051;-75
2022/03/30 04:23:20;;;;;;;55.13;30.65;;;;;;;4.89;59.84;98908.91;5069208;28;20144;-75
2022/03/30 04:25:47;;;;;;;58.53;29.95;;;;;;;4.87;59.92;98900.34;5069193;28;20251;-75
2022/03/30 04:28:17;;;;;;;63.70;29.90;;;;;;;4.85;59.96;98899.63;5068812;28;20572;-76
2022/03/30 04:30:44;;;;;;;53.38;25.48;;;;;;;4.83;59.84;98902.34;5070622;28;20140;-75
2022/03/30 04:33:11;;;;;;;61.35;29.23;;;;;;;4.81;59.88;98899.00;5069990;28;20105;-73
2022/03/30 04:35:38;;;;;;;60.58;29.90;;;;;;;4.82;59.77;98899.84;5067517;28;20123;-76
2022/03/30 04:38:06;;;;;;;57.40;29.15;;;;;;;4.85;60.10;98899.63;5067745;28;20052;-76
2022/03/30 04:40:33;;;;;;;64.80;31.10;;;;;;;4.90;59.84;98903.59;5067406;28;20174;-76
2022/03/30 04:43:00;;;;;;;64.57;32.38;;;;;;;4.94;59.92;98910.25;5087776;28;20042;-76
2022/03/30 04:45:29;;;;;;;61.10;31.60;;;;;;;5.05;59.74;98916.53;5089538;28;20672;-77
2022/03/30 04:47:56;;;;;;;63.33;32.35;;;;;;;5.18;59.61;98914.69;5090529;28;20531;-77
2022/03/30 04:50:23;;;;;;;68.10;32.20;;;;;;;5.32;59.56;98911.09;5088769;28;20535;-75
2022/03/30 04:52:52;;;;;;;71.10;34.00;;;;;;;5.50;59.24;98909.75;5088822;28;20118;-78
2022/03/30 04:55:20;;;;;;;76.45;37.40;;;;;;;5.64;58.99;98913.97;5087867;28;20044;-77
2022/03/30 04:57:47;;;;;;;80.40;37.47;;;;;;;5.83;58.79;98907.38;5089586;28;20055;-77
2022/03/30 05:00:15;;;;;;;81.57;38.10;;;;;;;6.02;58.60;98912.94;5087325;28;20396;-76
2022/03/30 05:02:43;;;;;;;64.35;31.13;;;;;;;6.20;58.39;98908.09;5091720;28;20392;-77
2022/03/30 05:05:10;;;;;;;61.95;29.50;;;;;;;6.41;58.09;98912.66;5100707;28;20048;-80
2022/03/30 05:07:38;;;;;;;66.75;29.63;;;;;;;6.57;57.86;98913.16;5100069;28;20050;-74
2022/03/30 05:10:07;;;;;;;52.63;28.33;;;;;;;6.76;57.30;98914.34;5087673;28;20487;-80
2022/03/30 05:12:34;;;;;;;62.53;31.83;;;;;;;6.88;57.05;98908.97;5086194;28;20040;-77
2022/03/30 05:15:01;;;;;;;49.78;28.83;;;;;;;6.99;56.79;98916.00;5069677;28;20040;-78
2022/03/30 05:17:29;;;;;;;63.08;29.70;;;;;;;6.96;56.76;98908.34;5087832;28;20104;-76
2022/03/30 05:19:58;;;;;;;56.40;30.35;;;;;;;6.91;56.70;98915.75;5086536;28;20125;-75
2022/03/30 05:22:26;;;;;;;62.05;30.70;;;;;;;6.83;56.69;98911.09;5088163;28;20135;-76
2022/03/30 05:24:52;;;;;;;57.65;30.23;;;;;;;6.74;56.96;98909.22;5083152;28;20043;-80
2022/03/30 05:27:19;;;;;;;59.00;29.00;;;;;;;6.65;56.96;98905.50;5085205;28;20055;-77
2022/03/30 05:29:46;;;;;;;52.30;28.85;;;;;;;6.61;57.03;98909.34;5086433;28;20056;-77
2022/03/30 05:32:13;;;;;;;49.58;27.67;;;;;;;6.59;57.05;98921.75;5083710;28;20740;-74
2022/03/30 05:34:41;;;;;;;57.35;31.83;;;;;;;6.55;57.05;98919.47;5085229;28;20506;-79
2022/03/30 05:37:09;;;;;;;62.58;31.73;;;;;;;6.56;57.08;98911.47;5082851;28;20610;-75
2022/03/30 05:39:39;;;;;;;55.22;29.88;;;;;;;6.60;56.98;98918.16;5082452;28;20048;-74
2022/03/30 05:42:07;;;;;;;59.15;28.52;;;;;;;6.65;56.89;98915.19;5083978;28;20035;-74
2022/03/30 05:44:34;;;;;;;54.03;28.60;;;;;;;6.74;56.62;98921.50;5088838;28;20048;-73
2022/03/30 05:47:01;;;;;;;56.03;26.40;;;;;;;6.85;56.49;98932.00;5087725;28;20287;-75
2022/03/30 05:49:28;;;;;;;53.35;28.98;;;;;;;6.94;56.33;98923.38;5086202;28;20047;-76
2022/03/30 05:51:55;;;;;;;51.30;28.63;;;;;;;7.13;56.14;98932.44;5088031;28;20087;-80
2022/03/30 05:54:23;;;;;;;70.35;33.55;;;;;;;7.28;55.79;98924.16;5085504;28;20048;-75
2022/03/30 05:57:02;;;;;;;56.67;31.23;;;;;;;7.46;55.39;98927.09;5084881;28;20058;-74
2022/03/30 05:59:30;;;;;;;56.38;28.48;;;;;;;7.63;55.11;98930.16;5085029;28;20634;-73
2022/03/30 06:01:58;;;;;;;57.17;30.00;;;;;;;7.57;54.84;98935.91;5083296;28;20059;-77
2022/03/30 06:04:25;;;;;;;52.88;27.90;;;;;;;7.58;54.82;98935.81;5083354;28;20048;-76
2022/03/30 06:06:53;;;;;;;49.83;27.45;;;;;;;7.73;54.65;98930.25;5083466;28;20044;-74
2022/03/30 06:09:20;;;;;;;56.97;29.17;;;;;;;7.92;54.48;98929.56;5084085;28;20054;-75
2022/03/30 06:11:52;;;;;;;59.03;31.13;;;;;;;8.06;54.24;98928.41;5084177;28;20040;-75
2022/03/30 06:14:20;;;;;;;53.30;28.73;;;;;;;8.20;54.02;98921.03;5046690;28;20120;-77
2022/03/30 06:16:47;;;;;;;45.65;23.88;;;;;;;8.32;53.71;98915.69;5082920;28;20463;-73
2022/03/30 06:19:17;;;;;;;48.20;22.20;;;;;;;8.23;51.90;98920.78;5085318;28;20223;-75
2022/03/30 06:21:44;;;;;;;40.13;22.92;;;;;;;8.16;51.24;98918.81;5066531;28;20044;-76
2022/03/30 06:24:11;;;;;;;43.13;24.63;;;;;;;8.06;50.59;98920.53;5085107;28;20048;-76
2022/03/30 06:26:40;;;;;;;41.53;25.50;;;;;;;7.97;49.83;98915.06;5085127;28;20064;-80
2022/03/30 06:29:09;;;;;;;39.85;19.75;;;;;;;8.03;49.66;98924.22;5083135;28;20660;-77
2022/03/30 06:31:40;;;;;;;24.50;14.77;;;;;;;8.11;49.62;98916.56;5084643;28;20068;-76
2022/03/30 06:34:07;;;;;;;35.75;22.33;;;;;;;8.09;48.97;98922.91;5088698;28;20127;-76
2022/03/30 06:36:37;;;;;;;37.45;20.13;;;;;;;8.07;48.62;98915.16;5089650;28;20715;-75
2022/03/30 06:39:05;;;;;;;34.80;18.65;;;;;;;8.15;48.50;98922.38;5083089;28;20043;-71
2022/03/30 06:41:33;;;;;;;30.08;14.68;;;;;;;8.31;48.55;98922.75;5081986;28;20071;-71
2022/03/30 06:44:00;;;;;;;33.35;19.67;;;;;;;8.33;48.04;98920.00;5059539;28;20084;-75
2022/03/30 06:46:32;;;;;;;33.90;20.27;;;;;;;8.36;47.58;98928.47;5060405;28;20132;-72
2022/03/30 06:48:59;;;;;;;36.45;19.02;;;;;;;8.51;47.80;98926.38;5061210;28;20060;-73
2022/03/30 06:51:26;;;;;;;33.65;21.08;;;;;;;8.48;47.36;98929.28;5060113;28;20160;-72
2022/03/30 06:53:54;;;;;;;42.38;21.27;;;;;;;8.46;47.84;98931.19;5060597;28;20531;-74
2022/03/30 06:56:21;;;;;;;32.90;20.48;;;;;;;8.57;47.77;98939.03;5023902;28;20058;-73
2022/03/30 06:58:48;;;;;;;34.85;18.52;;;;;;;8.66;47.68;98934.78;5060902;28;20404;-73
2022/03/30 07:01:16;;;;;;;35.88;17.60;;;;;;;8.80;47.36;98939.69;5058823;28;20063;-71
2022/03/30 07:03:44;;;;;;;32.95;19.65;;;;;;;8.80;47.26;98936.19;5059077;28;20052;-74
2022/03/30 07:06:11;;;;;;;39.88;22.73;;;;;;;8.66;46.76;98945.31;5061484;28;20044;-73
2022/03/30 07:11:23;;;;;;;38.17;24.08;;;;;;;8.43;47.26;98947.25;5061363;28;20062;-72
2022/03/30 07:13:51;;;;;;;38.97;21.80;;;;;;;8.39;47.58;98944.00;5062329;28;20091;-72
2022/03/30 07:16:18;;;;;;;35.80;24.30;;;;;;;8.43;47.62;98949.88;5059479;28;20060;-74
2022/03/30 07:18:46;;;;;;;36.65;21.17;;;;;;;8.55;47.70;98946.22;5061018;28;20106;-71
2022/03/30 07:21:13;;;;;;;40.35;23.92;;;;;;;8.61;47.34;98950.94;5008525;28;20052;-72
2022/03/30 07:23:40;;;;;;;47.13;20.42;;;;;;;8.63;47.45;98955.25;5058021;28;20379;-73
2022/03/30 07:26:07;;;;;;;30.27;18.90;;;;;;;8.66;46.65;98960.25;5059705;28;20139;-73
2022/03/30 07:28:35;;;;;;;37.92;22.83;;;;;;;8.68;46.37;98946.00;5059519;28;20138;-69
2022/03/30 07:31:03;;;;;;;35.10;18.73;;;;;;;8.71;46.26;98952.78;5057290;28;20133;-70
2022/03/30 07:33:32;;;;;;;29.98;17.83;;;;;;;8.79;45.98;98955.59;5059172;28;20060;-75
2022/03/30 07:36:01;;;;;;;29.80;16.52;;;;;;;8.94;45.84;98948.19;5061476;28;20052;-73
2022/03/30 07:38:28;;;;;;;28.58;17.95;;;;;;;8.97;45.22;98959.28;5061485;28;20089;-73
2022/03/30 07:40:56;;;;;;;32.28;18.63;;;;;;;8.93;45.40;98949.97;5066100;28;20623;-74
2022/03/30 07:43:24;;;;;;;40.38;18.60;;;;;;;9.11;44.89;98955.47;5084301;28;20089;-77
2022/03/30 07:45:53;;;;;;;32.75;18.17;;;;;;;9.24;44.63;98954.34;5066168;28;20043;-78
2022/03/30 07:48:20;;;;;;;32.20;17.90;;;;;;;9.25;44.38;98956.03;5084619;28;20050;-76
2022/03/30 07:50:47;;;;;;;24.77;15.93;;;;;;;9.27;44.08;98956.72;5056490;28;20119;-73
2022/03/30 07:53:17;;;;;;;29.85;14.48;;;;;;;9.36;43.82;98962.03;5080517;28;20055;-74
2022/03/30 07:55:44;;;;;;;22.50;14.50;;;;;;;9.49;43.89;98961.78;5081787;28;20050;-73
2022/03/30 07:58:12;;;;;;;34.15;18.80;;;;;;;9.63;43.95;98957.91;5026956;28;20547;-75
2022/03/30 08:00:43;;;;;;;27.27;16.27;;;;;;;9.73;43.13;98960.56;5082212;28;20322;-75
2022/03/30 08:03:10;;;;;;;22.85;12.68;;;;;;;9.82;43.20;98967.66;5077563;28;20056;-73
2022/03/30 08:05:38;;;;;;;30.77;16.38;;;;;;;10.15;42.66;98957.63;5080063;28;20048;-72
2022/03/30 08:08:08;;;;;;;30.52;13.57;;;;;;;10.08;41.56;98960.03;5080799;28;20040;-74
2022/03/30 08:10:38;;;;;;;25.10;12.05;;;;;;;10.09;41.34;98964.31;5078874;28;20131;-75
2022/03/30 08:13:10;;;;;;;27.00;16.50;;;;;;;10.16;41.78;98963.78;5082521;28;20512;-79
2022/03/30 08:15:38;;;;;;;27.90;14.70;;;;;;;10.11;41.62;98967.63;5080022;28;20059;-73
2022/03/30 08:18:06;;;;;;;28.30;13.07;;;;;;;10.26;41.18;98972.47;5082319;28;20035;-72
2022/03/30 08:23:24;;;;;;;19.77;12.30;;;;;;;10.34;40.10;98977.94;5082368;28;20565;-75
2022/03/30 08:25:54;;;;;;;24.42;13.63;;;;;;;10.36;40.51;98975.97;5080355;28;20042;-74
2022/03/30 08:28:21;;;;;;;22.92;12.10;;;;;;;10.49;40.30;98973.88;5081903;28;20075;-72
2022/03/30 08:30:49;;;;;;;21.23;11.40;;;;;;;10.50;39.89;98982.63;5083608;28;20343;-76
2022/03/30 08:33:18;;;;;;;19.80;10.50;;;;;;;10.50;39.38;98966.81;5080094;28;20048;-75
2022/03/30 08:35:50;;;;;;;21.20;11.02;;;;;;;10.55;39.11;98966.34;5081211;28;20042;-75
2022/03/30 08:38:19;;;;;;;27.05;12.88;;;;;;;10.73;39.28;98961.16;5065273;28;20048;-76
2022/03/30 08:40:49;;;;;;;19.40;9.95;;;;;;;10.79;38.64;98972.00;5081669;28;20044;-76
2022/03/30 08:43:18;;;;;;;22.38;11.30;;;;;;;10.75;38.87;98960.06;5082156;28;20048;-75
2022/03/30 08:45:46;;;;;;;22.80;12.30;;;;;;;10.74;38.57;98963.66;5081561;28;20036;-77
2022/03/30 08:48:15;;;;;;;19.20;11.68;;;;;;;10.80;38.59;98960.44;5082765;28;20275;-79
2022/03/30 08:50:42;;;;;;;16.63;9.18;;;;;;;11.07;38.79;98964.94;5082622;28;20080;-75
2022/03/30 08:53:09;;;;;;;22.35;10.57;;;;;;;11.19;37.93;98962.91;5086073;28;20043;-79
2022/03/30 08:55:37;;;;;;;24.92;13.70;;;;;;;11.39;37.98;98962.81;5073544;28;20123;-77
2022/03/30 08:58:07;;;;;;;19.23;10.52;;;;;;;11.27;37.62;98954.25;5081220;28;20067;-75
2022/03/30 09:00:44;;;;;;;23.92;11.38;;;;;;;11.21;37.27;98954.84;5081291;28;20089;-77
2022/03/30 09:03:15;;;;;;;23.05;7.70;;;;;;;11.44;37.27;98961.41;5076617;28;20068;-77
2022/03/30 09:05:58;;;;;;;13.38;8.45;;;;;;;11.70;36.41;98955.38;5080945;28;20046;-74
2022/03/30 09:08:27;;;;;;;14.57;8.95;;;;;;;11.75;36.32;98955.75;5075889;28;20040;-77
2022/03/30 09:10:56;;;;;;;18.42;7.07;;;;;;;12.06;36.56;98960.69;5079905;28;20074;-76
2022/03/30 09:13:29;;;;;;;16.88;8.02;;;;;;;12.20;35.52;98956.69;5079948;28;20136;-76
2022/03/30 09:15:58;;;;;;;15.25;6.88;;;;;;;12.47;35.66;98953.06;5077617;28;20036;-76
2022/03/30 09:18:24;;;;;;;19.15;9.82;;;;;;;12.35;34.67;98949.84;5079640;28;20068;-74
2022/03/30 09:20:55;;;;;;;17.75;10.43;;;;;;;12.19;35.08;98952.34;5079678;28;20074;-77
2022/03/30 09:23:25;;;;;;;17.77;9.65;;;;;;;11.96;35.16;98936.97;5080818;28;20060;-75
2022/03/30 09:25:52;;;;;;;27.25;10.32;;;;;;;11.85;35.11;98947.75;5079819;28;20123;-76
2022/03/30 09:28:22;;;;;;;17.45;8.48;;;;;;;11.79;35.74;98940.41;5081089;28;20278;-81
2022/03/30 09:30:53;;;;;;;17.05;10.68;;;;;;;11.85;35.55;98932.72;5082297;28;20044;-77
2022/03/30 09:33:24;;;;;;;17.35;9.52;;;;;;;11.76;35.26;98936.28;5073996;28;20433;-73
2022/03/30 09:35:51;;;;;;;18.75;10.80;;;;;;;11.57;35.91;98924.00;5079187;28;20049;-76
2022/03/30 09:38:20;;;;;;;19.73;9.30;;;;;;;11.53;36.24;98927.13;5080680;28;20058;-74
2022/03/30 09:41:10;;;;;;;18.85;9.05;;;;;;;11.51;36.10;98918.50;5078036;28;20456;-73
2022/03/30 09:43:41;;;;;;;18.63;9.40;;;;;;;11.43;35.62;98901.59;5075021;28;20076;-72
2022/03/30 09:46:11;;;;;;;17.48;10.65;;;;;;;11.33;35.77;98907.91;5078904;28;20043;-73
2022/03/30 09:48:49;;;;;;;20.27;9.60;;;;;;;11.38;36.32;98921.50;5080173;28;20051;-74
2022/03/30 09:51:17;;;;;;;14.60;7.93;;;;;;;11.53;35.53;98920.00;5076707;28;20499;-71
2022/03/30 09:53:48;;;;;;;15.50;6.35;;;;;;;11.89;35.93;98914.72;5074988;28;20120;-74
2022/03/30 09:56:17;;;;;;;15.07;7.50;;;;;;;12.14;34.98;98910.47;5079336;28;20050;-73
2022/03/30 09:58:44;;;;;;;16.52;7.03;;;;;;;12.41;34.78;98906.84;5074013;28;20050;-72
2022/03/30 10:01:19;;;;;;;12.45;6.10;;;;;;;13.00;34.59;98901.69;5078301;28;20361;-75
2022/03/30 10:03:50;;;;;;;18.73;8.90;;;;;;;13.15;33.37;98901.06;5075526;28;20476;-74
2022/03/30 10:06:20;;;;;;;31.65;10.27;;;;;;;12.71;33.37;98903.88;5076599;28;20089;-74
2022/03/30 10:08:49;;;;;;;23.55;10.25;;;;;;;12.57;34.09;98906.13;5079331;28;20127;-75
2022/03/30 10:11:21;;;;;;;16.60;8.40;;;;;;;12.68;33.82;98902.38;5080538;28;20161;-74
2022/03/30 10:13:50;;;;;;;19.08;8.30;;;;;;;12.89;33.76;98895.84;5074298;28;20055;-77
2022/03/30 10:16:20;;;;;;;16.40;8.82;;;;;;;13.26;33.35;98897.31;5080047;28;20052;-75
2022/03/30 10:18:49;;;;;;;16.02;8.93;;;;;;;13.19;33.38;98899.75;5081555;28;20048;-74
2022/03/30 10:21:23;;;;;;;17.38;8.55;;;;;;;12.90;33.38;98895.69;5080420;28;20062;-73
2022/03/30 10:24:16;;;;;;;20.60;8.48;;;;;;;12.57;33.93;98890.25;5075169;28;20127;-73
2022/03/30 10:26:55;;;;;;;18.38;8.88;;;;;;;12.48;34.14;98891.19;5074304;28;20040;-75
2022/03/30 10:29:25;;;;;;;14.45;8.02;;;;;;;12.54;33.97;98889.72;5079017;28;20050;-79
2022/03/30 10:32:13;;;;;;;15.52;8.73;;;;;;;12.52;33.59;98895.16;5079625;28;20120;-75
2022/03/30 10:34:50;;;;;;;13.20;7.80;;;;;;;12.22;34.26;98901.75;5075500;28;20132;-76
2022/03/30 10:37:24;;;;;;;14.73;8.35;;;;;;;12.23;34.46;98908.72;5079196;28;20196;-75
2022/03/30 10:39:57;;;;;;;20.55;13.88;;;;;;;12.32;34.63;98891.91;5075370;28;20163;-73
2022/03/30 10:42:25;;;;;;;15.73;9.63;;;;;;;12.37;34.17;98899.38;5072932;28;20048;-77
2022/03/30 10:44:57;;;;;;;13.88;8.32;;;;;;;12.49;33.61;98884.88;5079247;28;20040;-75
2022/03/30 10:47:26;;;;;;;20.02;8.27;;;;;;;12.61;33.37;98893.41;5074364;28;20494;-75
2022/03/30 10:49:56;;;;;;;20.33;9.18;;;;;;;12.70;33.90;98895.09;5078757;28;20608;-73
2022/03/30 10:52:35;;;;;;;16.15;10.38;;;;;;;12.61;33.68;98894.22;5073692;28;20129;-75
2022/03/30 10:55:36;;;;;;;16.17;9.48;;;;;;;12.35;33.83;98899.56;5073216;28;20044;-75
2022/03/30 10:58:06;;;;;;;20.63;9.18;;;;;;;12.32;33.97;98902.50;5004709;28;20120;-78
2022/03/30 11:00:36;;;;;;;18.98;8.77;;;;;;;12.22;33.88;98897.28;5007022;28;20089;-78
2022/03/30 11:03:14;;;;;;;15.80;8.95;;;;;;;12.33;33.76;98892.72;5005628;28;20058;-76
2022/03/30 11:05:47;;;;;;;12.82;6.88;;;;;;;12.42;34.25;98900.59;5003852;28;20092;-76
2022/03/30 11:08:51;;;;;;;16.85;7.78;;;;;;;13.27;33.32;98893.63;5005719;28;20192;-76
2022/03/30 11:11:23;;;;;;;17.80;10.15;;;;;;;13.32;32.47;98894.03;4936892;29;20051;-75
2022/03/30 11:14:23;;;;;;;18.95;10.27;;;;;;;12.99;32.87;98899.19;4937775;29;20142;-74
2022/03/30 11:16:54;;;;;;;14.57;9.13;;;;;;;12.71;33.20;98899.41;4936873;29;20472;-74
2022/03/30 11:19:22;;;;;;;24.75;9.73;;;;;;;12.91;33.40;98893.84;4940620;28;20050;-79
2022/03/30 11:22:08;;;;;;;44.83;11.98;;;;;;;12.81;33.41;98892.16;4944180;29;20416;-76
2022/03/30 11:24:35;;;;;;;32.42;10.98;;;;;;;12.73;33.40;98880.69;4940682;29;20054;-77
2022/03/30 11:27:21;;;;;;;23.75;10.00;;;;;;;13.00;33.11;98887.63;4940375;29;20047;-76
2022/03/30 11:30:15;;;;;;;23.15;9.93;;;;;;;13.15;32.79;98882.53;4943223;29;20471;-76
2022/03/30 11:33:06;;;;;;;12.65;8.38;;;;;;;12.98;32.86;98881.63;4988395;28;20099;-77
2022/03/30 11:35:39;;;;;;;17.25;8.85;;;;;;;12.77;32.54;98877.56;5008472;28;20053;-75
2022/03/30 11:38:11;;;;;;;19.70;7.60;;;;;;;12.69;33.21;98877.53;5006134;28;20041;-76
2022/03/30 11:40:41;;;;;;;51.25;14.77;;;;;;;12.93;32.85;98882.13;5007062;28;20060;-77
2022/03/30 11:43:10;;;;;;;15.77;8.70;;;;;;;12.91;32.74;98885.91;5010222;28;20045;-73